OMA645 OOMS-OKKK
Flight info
| Callsign | OMA645 |
|---|---|
| Flight time | 1h 45m |
| Altitude | 32000 |
| Route | MCT N718 ITRAX P899 ROVOS G462 TUMAK M600 KUMBO/N0434F240 A453 DEBTI |
| Aircraft | B738/M-SDE2E3FGHIRWXY/LB1 |
Departure
| Time | 2026-05-01 11:12 |
|---|---|
| Airport | Muscat International Airport (OOMS) |
Arrival
| Time | 2026-05-01 12:57 |
|---|---|
| Airport | Kuwait International Airport (OKKK) |
| Time | Latitude | Longitude | Altitude | Speed | Heading |
|---|---|---|---|---|---|
| 2026-05-01 09:35 | 23.60340 | 58.28587 | 43 ft | 0 kts | 85° |
| 2026-05-01 11:01 | 23.60340 | 58.28579 | 44 ft | 4 kts | 85° |
| 2026-05-01 11:02 | 23.60338 | 58.28549 | 44 ft | 4 kts | 85° |
| 2026-05-01 11:02 | 23.60335 | 58.28520 | 44 ft | 4 kts | 85° |
| 2026-05-01 11:02 | 23.60333 | 58.28491 | 44 ft | 4 kts | 85° |
| 2026-05-01 11:02 | 23.60331 | 58.28461 | 41 ft | 4 kts | 85° |
| 2026-05-01 11:03 | 23.60327 | 58.28438 | 41 ft | 4 kts | 49° |
| 2026-05-01 11:03 | 23.60308 | 58.28431 | 39 ft | 4 kts | 348° |
| 2026-05-01 11:03 | 23.60284 | 58.28435 | 43 ft | 4 kts | 23° |
| 2026-05-01 11:03 | 23.60271 | 58.28423 | 44 ft | 4 kts | 64° |
| 2026-05-01 11:04 | 23.60266 | 58.28396 | 44 ft | 4 kts | 94° |
| 2026-05-01 11:04 | 23.60267 | 58.28381 | 44 ft | 0 kts | 85° |
| 2026-05-01 11:06 | 23.60267 | 58.28388 | 44 ft | 4 kts | 85° |
| 2026-05-01 11:06 | 23.60274 | 58.28426 | 43 ft | 6 kts | 68° |
| 2026-05-01 11:06 | 23.60316 | 58.28453 | 42 ft | 8 kts | 4° |
| 2026-05-01 11:07 | 23.60456 | 58.28441 | 43 ft | 12 kts | 354° |
| 2026-05-01 11:07 | 23.60536 | 58.28459 | 42 ft | 13 kts | 53° |
| 2026-05-01 11:07 | 23.60550 | 58.28560 | 44 ft | 14 kts | 83° |
| 2026-05-01 11:07 | 23.60561 | 58.28673 | 41 ft | 16 kts | 85° |
| 2026-05-01 11:08 | 23.60569 | 58.28776 | 44 ft | 11 kts | 84° |
| 2026-05-01 11:08 | 23.60577 | 58.28869 | 44 ft | 13 kts | 84° |
| 2026-05-01 11:08 | 23.60595 | 58.29094 | 44 ft | 17 kts | 85° |
| 2026-05-01 11:09 | 23.60607 | 58.29228 | 44 ft | 19 kts | 84° |
| 2026-05-01 11:09 | 23.60617 | 58.29373 | 44 ft | 20 kts | 85° |
| 2026-05-01 11:09 | 23.60629 | 58.29527 | 44 ft | 18 kts | 86° |
| 2026-05-01 11:10 | 23.60761 | 58.29603 | 43 ft | 0 kts | 356° |
| 2026-05-01 11:10 | 23.60767 | 58.29602 | 43 ft | 2 kts | 356° |
| 2026-05-01 11:10 | 23.60816 | 58.29598 | 42 ft | 10 kts | 354° |
| 2026-05-01 11:10 | 23.60885 | 58.29571 | 43 ft | 12 kts | 301° |
| 2026-05-01 11:11 | 23.60891 | 58.29498 | 43 ft | 0 kts | 264° |
| 2026-05-01 11:11 | 23.60885 | 58.29423 | 44 ft | 27 kts | 265° |
| 2026-05-01 11:11 | 23.60848 | 58.28956 | 43 ft | 96 kts | 265° |
| 2026-05-01 11:11 | 23.60770 | 58.28000 | 42 ft | 155 kts | 265° |
| 2026-05-01 11:12 | 23.60650 | 58.26695 | 294 ft | 183 kts | 265° |
| 2026-05-01 11:12 | 23.60513 | 58.25318 | 1065 ft | 182 kts | 269° |
| 2026-05-01 11:12 | 23.60412 | 58.24003 | 1991 ft | 168 kts | 270° |
| 2026-05-01 11:12 | 23.60324 | 58.22669 | 2397 ft | 190 kts | 268° |
| 2026-05-01 11:13 | 23.60222 | 58.21153 | 2818 ft | 204 kts | 269° |
| 2026-05-01 11:13 | 23.60144 | 58.19613 | 3332 ft | 209 kts | 270° |
| 2026-05-01 11:13 | 23.60054 | 58.18007 | 3668 ft | 221 kts | 266° |
| 2026-05-01 11:13 | 23.59884 | 58.16264 | 3863 ft | 240 kts | 265° |
| 2026-05-01 11:14 | 23.59703 | 58.14428 | 4373 ft | 244 kts | 265° |
| 2026-05-01 11:14 | 23.59533 | 58.12585 | 4993 ft | 245 kts | 265° |
| 2026-05-01 11:14 | 23.59373 | 58.10733 | 5648 ft | 244 kts | 265° |
| 2026-05-01 11:14 | 23.59219 | 58.08885 | 6125 ft | 256 kts | 265° |
| 2026-05-01 11:15 | 23.59058 | 58.06910 | 6604 ft | 266 kts | 265° |
| 2026-05-01 11:15 | 23.58893 | 58.04883 | 7278 ft | 268 kts | 265° |
| 2026-05-01 11:15 | 23.58791 | 58.02851 | 8029 ft | 269 kts | 269° |
| 2026-05-01 11:15 | 23.58803 | 58.00796 | 8731 ft | 271 kts | 270° |
| 2026-05-01 11:16 | 23.58837 | 57.98724 | 9457 ft | 274 kts | 269° |
| 2026-05-01 11:16 | 23.58870 | 57.96641 | 10133 ft | 276 kts | 269° |
| 2026-05-01 11:16 | 23.58897 | 57.94510 | 10451 ft | 294 kts | 269° |
| 2026-05-01 11:16 | 23.58921 | 57.92199 | 10607 ft | 315 kts | 269° |
| 2026-05-01 11:17 | 23.58944 | 57.89747 | 10724 ft | 336 kts | 269° |
| 2026-05-01 11:17 | 23.58965 | 57.87129 | 10862 ft | 354 kts | 269° |
| 2026-05-01 11:17 | 23.58986 | 57.84374 | 10988 ft | 370 kts | 269° |
| 2026-05-01 11:17 | 23.59005 | 57.81514 | 11324 ft | 379 kts | 269° |
| 2026-05-01 11:18 | 23.59011 | 57.78626 | 11818 ft | 382 kts | 269° |
| 2026-05-01 11:18 | 23.59011 | 57.75764 | 12344 ft | 383 kts | 269° |
| 2026-05-01 11:18 | 23.59010 | 57.72847 | 12863 ft | 386 kts | 269° |
| 2026-05-01 11:18 | 23.59008 | 57.69912 | 13361 ft | 389 kts | 269° |
| 2026-05-01 11:19 | 23.59006 | 57.66952 | 13815 ft | 391 kts | 269° |
| 2026-05-01 11:19 | 23.59004 | 57.63978 | 14261 ft | 394 kts | 269° |
| 2026-05-01 11:19 | 23.59002 | 57.60976 | 14653 ft | 397 kts | 269° |
| 2026-05-01 11:19 | 23.59000 | 57.57947 | 15079 ft | 400 kts | 269° |
| 2026-05-01 11:20 | 23.58998 | 57.54914 | 15540 ft | 400 kts | 269° |
| 2026-05-01 11:20 | 23.58995 | 57.51871 | 15956 ft | 402 kts | 269° |
| 2026-05-01 11:20 | 23.58991 | 57.48840 | 16384 ft | 404 kts | 269° |
| 2026-05-01 11:20 | 23.58987 | 57.45771 | 16821 ft | 405 kts | 269° |
| 2026-05-01 11:21 | 23.58982 | 57.42680 | 17244 ft | 407 kts | 269° |
| 2026-05-01 11:21 | 23.58976 | 57.39581 | 17656 ft | 408 kts | 268° |
| 2026-05-01 11:21 | 23.58970 | 57.36516 | 18071 ft | 410 kts | 268° |
| 2026-05-01 11:21 | 23.58964 | 57.33401 | 18423 ft | 411 kts | 268° |
| 2026-05-01 11:22 | 23.58956 | 57.30276 | 18742 ft | 413 kts | 268° |
| 2026-05-01 11:22 | 23.58948 | 57.27136 | 19095 ft | 414 kts | 268° |
| 2026-05-01 11:22 | 23.58939 | 57.23985 | 19409 ft | 416 kts | 268° |
| 2026-05-01 11:22 | 23.58930 | 57.20844 | 19719 ft | 418 kts | 268° |
| 2026-05-01 11:23 | 23.58920 | 57.17669 | 20042 ft | 419 kts | 268° |
| 2026-05-01 11:23 | 23.58963 | 57.14479 | 20376 ft | 422 kts | 272° |
| 2026-05-01 11:23 | 23.59417 | 57.11291 | 20649 ft | 426 kts | 280° |
| 2026-05-01 11:23 | 23.60267 | 57.08222 | 21020 ft | 430 kts | 289° |
| 2026-05-01 11:24 | 23.61465 | 57.05231 | 21371 ft | 431 kts | 290° |
| 2026-05-01 11:24 | 23.62707 | 57.02234 | 21673 ft | 433 kts | 291° |
| 2026-05-01 11:24 | 23.65202 | 56.96204 | 22231 ft | 436 kts | 290° |
| 2026-05-01 11:25 | 23.66428 | 56.93207 | 22502 ft | 438 kts | 290° |
| 2026-05-01 11:25 | 23.68908 | 56.87097 | 22962 ft | 442 kts | 290° |
| 2026-05-01 11:25 | 23.70150 | 56.84025 | 23248 ft | 443 kts | 290° |
| 2026-05-01 11:26 | 23.71395 | 56.80940 | 23519 ft | 444 kts | 289° |
| 2026-05-01 11:26 | 23.73874 | 56.74792 | 23933 ft | 446 kts | 289° |
| 2026-05-01 11:26 | 23.75125 | 56.71684 | 24152 ft | 446 kts | 290° |
| 2026-05-01 11:27 | 23.76377 | 56.68574 | 24365 ft | 447 kts | 290° |
| 2026-05-01 11:27 | 23.77626 | 56.65468 | 24623 ft | 447 kts | 289° |
| 2026-05-01 11:27 | 23.78876 | 56.62360 | 24847 ft | 447 kts | 289° |
| 2026-05-01 11:27 | 23.80126 | 56.59248 | 25013 ft | 448 kts | 289° |
| 2026-05-01 11:28 | 23.81377 | 56.56129 | 25189 ft | 449 kts | 290° |
| 2026-05-01 11:28 | 23.82633 | 56.52997 | 25322 ft | 450 kts | 290° |
| 2026-05-01 11:28 | 23.83891 | 56.49858 | 25446 ft | 451 kts | 290° |
| 2026-05-01 11:29 | 23.86398 | 56.43599 | 25728 ft | 453 kts | 289° |
| 2026-05-01 11:29 | 23.87661 | 56.40441 | 25858 ft | 454 kts | 290° |
| 2026-05-01 11:29 | 23.90192 | 56.34106 | 26233 ft | 454 kts | 290° |
| 2026-05-01 11:30 | 23.91456 | 56.30940 | 26435 ft | 454 kts | 290° |
| 2026-05-01 11:30 | 23.92720 | 56.27771 | 26608 ft | 454 kts | 290° |
| 2026-05-01 11:30 | 23.93986 | 56.24610 | 26788 ft | 454 kts | 290° |
| 2026-05-01 11:30 | 23.95464 | 56.21555 | 27037 ft | 456 kts | 298° |
| 2026-05-01 11:31 | 23.97248 | 56.18683 | 27301 ft | 455 kts | 300° |
| 2026-05-01 11:31 | 23.99050 | 56.15832 | 27508 ft | 455 kts | 300° |
| 2026-05-01 11:31 | 24.00846 | 56.12974 | 27731 ft | 454 kts | 300° |
| 2026-05-01 11:31 | 24.02597 | 56.10165 | 28081 ft | 450 kts | 300° |
| 2026-05-01 11:32 | 24.04351 | 56.07331 | 28291 ft | 450 kts | 299° |
| 2026-05-01 11:32 | 24.06103 | 56.04485 | 28485 ft | 450 kts | 299° |
| 2026-05-01 11:32 | 24.07853 | 56.01636 | 28703 ft | 450 kts | 299° |
| 2026-05-01 11:32 | 24.09598 | 55.98794 | 28972 ft | 448 kts | 299° |
| 2026-05-01 11:33 | 24.11334 | 55.95966 | 29257 ft | 446 kts | 299° |
| 2026-05-01 11:33 | 24.13064 | 55.93146 | 29521 ft | 445 kts | 299° |
| 2026-05-01 11:33 | 24.14793 | 55.90326 | 29755 ft | 444 kts | 299° |
| 2026-05-01 11:33 | 24.16490 | 55.87557 | 29975 ft | 443 kts | 299° |
| 2026-05-01 11:34 | 24.18206 | 55.84757 | 30173 ft | 443 kts | 299° |
| 2026-05-01 11:34 | 24.19907 | 55.81938 | 30344 ft | 441 kts | 296° |
| 2026-05-01 11:34 | 24.21319 | 55.78966 | 30493 ft | 438 kts | 290° |
| 2026-05-01 11:34 | 24.22341 | 55.75842 | 30658 ft | 434 kts | 282° |
| 2026-05-01 11:35 | 24.23093 | 55.72638 | 30851 ft | 433 kts | 281° |
| 2026-05-01 11:35 | 24.23836 | 55.69470 | 31028 ft | 433 kts | 282° |
| 2026-05-01 11:35 | 24.24606 | 55.66270 | 31215 ft | 433 kts | 282° |
| 2026-05-01 11:35 | 24.25387 | 55.63081 | 31421 ft | 433 kts | 282° |
| 2026-05-01 11:36 | 24.26161 | 55.59875 | 31623 ft | 432 kts | 281° |
| 2026-05-01 11:36 | 24.26817 | 55.56710 | 31807 ft | 431 kts | 279° |
| 2026-05-01 11:36 | 24.27426 | 55.53473 | 31850 ft | 432 kts | 278° |
| 2026-05-01 11:37 | 24.28419 | 55.48107 | 31852 ft | 430 kts | 279° |
| 2026-05-01 11:37 | 24.29641 | 55.41705 | 31853 ft | 428 kts | 279° |
| 2026-05-01 11:38 | 24.31396 | 55.35461 | 31846 ft | 431 kts | 290° |
| 2026-05-01 11:38 | 24.34467 | 55.29798 | 31841 ft | 436 kts | 299° |
| 2026-05-01 11:39 | 24.37850 | 55.24267 | 31829 ft | 436 kts | 298° |
| 2026-05-01 11:39 | 24.41183 | 55.18698 | 31834 ft | 436 kts | 298° |
| 2026-05-01 11:40 | 24.44497 | 55.13135 | 31840 ft | 437 kts | 298° |
| 2026-05-01 11:40 | 24.47819 | 55.07556 | 31836 ft | 438 kts | 298° |
| 2026-05-01 11:41 | 24.51170 | 55.01926 | 31825 ft | 439 kts | 298° |
| 2026-05-01 11:41 | 24.54494 | 54.96332 | 31823 ft | 439 kts | 298° |
| 2026-05-01 11:42 | 24.57839 | 54.90698 | 31825 ft | 440 kts | 298° |
| 2026-05-01 11:42 | 24.61110 | 54.85051 | 31827 ft | 438 kts | 296° |
| 2026-05-01 11:43 | 24.64244 | 54.79293 | 31828 ft | 438 kts | 296° |
| 2026-05-01 11:43 | 24.67376 | 54.73546 | 31813 ft | 438 kts | 296° |
| 2026-05-01 11:44 | 24.72099 | 54.64941 | 31816 ft | 437 kts | 296° |
| 2026-05-01 11:44 | 24.75220 | 54.59247 | 31815 ft | 436 kts | 296° |
| 2026-05-01 11:45 | 24.78354 | 54.53522 | 31842 ft | 436 kts | 296° |
| 2026-05-01 11:45 | 24.81463 | 54.47832 | 31824 ft | 435 kts | 296° |
| 2026-05-01 11:46 | 24.84585 | 54.42114 | 31826 ft | 435 kts | 296° |
| 2026-05-01 11:46 | 24.87737 | 54.36423 | 31827 ft | 435 kts | 297° |
| 2026-05-01 11:47 | 24.90985 | 54.30784 | 31823 ft | 435 kts | 297° |
| 2026-05-01 11:47 | 24.94236 | 54.25147 | 31826 ft | 435 kts | 297° |
| 2026-05-01 11:48 | 24.97450 | 54.19541 | 31834 ft | 435 kts | 297° |
| 2026-05-01 11:48 | 25.00680 | 54.13887 | 31826 ft | 435 kts | 297° |
| 2026-05-01 11:49 | 25.03908 | 54.08227 | 31831 ft | 435 kts | 297° |
| 2026-05-01 11:49 | 25.07113 | 54.02602 | 31830 ft | 435 kts | 297° |
| 2026-05-01 11:50 | 25.10336 | 53.96938 | 31828 ft | 435 kts | 297° |
| 2026-05-01 11:50 | 25.13557 | 53.91270 | 31836 ft | 435 kts | 296° |
| 2026-05-01 11:51 | 25.16776 | 53.85600 | 31827 ft | 435 kts | 296° |
| 2026-05-01 11:51 | 25.20045 | 53.79971 | 31823 ft | 438 kts | 301° |
| 2026-05-01 11:52 | 25.24310 | 53.75119 | 31833 ft | 449 kts | 314° |
| 2026-05-01 11:52 | 25.29146 | 53.70736 | 31824 ft | 449 kts | 314° |
| 2026-05-01 11:53 | 25.33968 | 53.66315 | 31835 ft | 449 kts | 313° |
| 2026-05-01 11:53 | 25.38728 | 53.61900 | 31823 ft | 449 kts | 313° |
| 2026-05-01 11:54 | 25.43516 | 53.57452 | 31825 ft | 448 kts | 313° |
| 2026-05-01 11:54 | 25.48303 | 53.53006 | 31824 ft | 448 kts | 313° |
| 2026-05-01 11:55 | 25.53053 | 53.48590 | 31832 ft | 448 kts | 313° |
| 2026-05-01 11:55 | 25.57826 | 53.44146 | 31825 ft | 448 kts | 313° |
| 2026-05-01 11:56 | 25.62593 | 53.39686 | 31822 ft | 447 kts | 312° |
| 2026-05-01 11:56 | 25.67263 | 53.35145 | 31821 ft | 445 kts | 311° |
| 2026-05-01 11:57 | 25.71891 | 53.30611 | 31839 ft | 445 kts | 311° |
| 2026-05-01 11:57 | 25.76547 | 53.26068 | 31822 ft | 445 kts | 311° |
| 2026-05-01 11:58 | 25.81164 | 53.21559 | 31822 ft | 444 kts | 310° |
| 2026-05-01 11:58 | 25.84996 | 53.16372 | 31826 ft | 430 kts | 296° |
| 2026-05-01 11:59 | 25.86379 | 53.13457 | 31827 ft | 424 kts | 289° |
| 2026-05-01 11:59 | 25.88767 | 53.07461 | 31826 ft | 424 kts | 289° |
| 2026-05-01 12:00 | 25.92380 | 52.98460 | 31826 ft | 426 kts | 289° |
| 2026-05-01 12:01 | 25.96017 | 52.89475 | 31830 ft | 427 kts | 289° |
| 2026-05-01 12:01 | 25.98459 | 52.83433 | 31829 ft | 427 kts | 289° |
| 2026-05-01 12:02 | 26.00896 | 52.77395 | 31828 ft | 428 kts | 289° |
| 2026-05-01 12:02 | 26.03393 | 52.71407 | 31833 ft | 430 kts | 291° |
| 2026-05-01 12:03 | 26.06118 | 52.65475 | 31829 ft | 430 kts | 291° |
| 2026-05-01 12:03 | 26.08807 | 52.59578 | 31830 ft | 429 kts | 291° |
| 2026-05-01 12:04 | 26.11475 | 52.53641 | 31832 ft | 428 kts | 291° |
| 2026-05-01 12:04 | 26.14155 | 52.47715 | 31828 ft | 428 kts | 291° |
| 2026-05-01 12:05 | 26.16828 | 52.41823 | 31858 ft | 427 kts | 291° |
| 2026-05-01 12:05 | 26.20837 | 52.32959 | 31839 ft | 426 kts | 291° |
| 2026-05-01 12:06 | 26.23469 | 52.27047 | 31841 ft | 425 kts | 290° |
| 2026-05-01 12:06 | 26.26020 | 52.21128 | 31838 ft | 424 kts | 290° |
| 2026-05-01 12:07 | 26.28575 | 52.15198 | 31842 ft | 424 kts | 290° |
| 2026-05-01 12:07 | 26.31119 | 52.09312 | 31866 ft | 424 kts | 290° |
| 2026-05-01 12:08 | 26.33672 | 52.03372 | 31851 ft | 423 kts | 290° |
| 2026-05-01 12:08 | 26.36205 | 51.97438 | 31844 ft | 423 kts | 290° |
| 2026-05-01 12:09 | 26.38525 | 51.91469 | 31854 ft | 419 kts | 285° |
| 2026-05-01 12:09 | 26.40522 | 51.85354 | 31839 ft | 419 kts | 285° |
| 2026-05-01 12:10 | 26.43588 | 51.76238 | 31854 ft | 419 kts | 285° |
| 2026-05-01 12:11 | 26.46680 | 51.67086 | 31869 ft | 419 kts | 285° |
| 2026-05-01 12:11 | 26.48745 | 51.60996 | 31854 ft | 419 kts | 285° |
| 2026-05-01 12:12 | 26.50761 | 51.54922 | 31848 ft | 419 kts | 285° |
| 2026-05-01 12:12 | 26.52778 | 51.48823 | 31858 ft | 418 kts | 285° |
| 2026-05-01 12:13 | 26.54802 | 51.42708 | 31859 ft | 418 kts | 285° |
| 2026-05-01 12:13 | 26.56806 | 51.36649 | 31887 ft | 418 kts | 285° |
| 2026-05-01 12:14 | 26.58823 | 51.30545 | 31870 ft | 418 kts | 285° |
| 2026-05-01 12:14 | 26.60837 | 51.24450 | 31858 ft | 417 kts | 285° |
| 2026-05-01 12:15 | 26.62838 | 51.18396 | 31864 ft | 417 kts | 285° |
| 2026-05-01 12:15 | 26.64846 | 51.12309 | 31863 ft | 416 kts | 285° |
| 2026-05-01 12:16 | 26.66852 | 51.06217 | 31862 ft | 416 kts | 285° |
| 2026-05-01 12:16 | 26.68835 | 51.00179 | 31888 ft | 416 kts | 285° |
| 2026-05-01 12:17 | 26.70798 | 50.94086 | 31874 ft | 416 kts | 284° |
| 2026-05-01 12:17 | 26.72745 | 50.88000 | 31864 ft | 415 kts | 284° |
| 2026-05-01 12:18 | 26.74685 | 50.81940 | 31866 ft | 415 kts | 284° |
| 2026-05-01 12:18 | 26.76630 | 50.75860 | 31878 ft | 414 kts | 284° |
| 2026-05-01 12:19 | 26.78572 | 50.69782 | 31871 ft | 414 kts | 284° |
| 2026-05-01 12:19 | 26.80508 | 50.63744 | 31899 ft | 414 kts | 285° |
| 2026-05-01 12:20 | 26.82566 | 50.57705 | 31879 ft | 415 kts | 285° |
| 2026-05-01 12:20 | 26.84638 | 50.51658 | 31877 ft | 415 kts | 285° |
| 2026-05-01 12:21 | 26.86676 | 50.45655 | 31879 ft | 415 kts | 286° |
| 2026-05-01 12:21 | 26.89395 | 50.39879 | 31896 ft | 422 kts | 295° |
| 2026-05-01 12:22 | 26.91998 | 50.35230 | 31875 ft | 420 kts | 295° |
| 2026-05-01 12:22 | 26.95547 | 50.28815 | 31892 ft | 413 kts | 295° |
| 2026-05-01 12:23 | 26.98053 | 50.24246 | 31886 ft | 412 kts | 295° |
| 2026-05-01 12:23 | 27.01056 | 50.18762 | 31881 ft | 411 kts | 295° |
| 2026-05-01 12:24 | 27.04054 | 50.13289 | 31885 ft | 409 kts | 295° |
| 2026-05-01 12:24 | 27.07548 | 50.08280 | 31888 ft | 411 kts | 303° |
| 2026-05-01 12:25 | 27.13151 | 50.00998 | 31892 ft | 410 kts | 303° |
| 2026-05-01 12:26 | 27.16864 | 49.96131 | 31891 ft | 409 kts | 302° |
| 2026-05-01 12:26 | 27.22390 | 49.88856 | 31895 ft | 409 kts | 302° |
| 2026-05-01 12:27 | 27.27913 | 49.81569 | 31898 ft | 409 kts | 302° |
| 2026-05-01 12:28 | 27.33463 | 49.74236 | 31894 ft | 410 kts | 302° |
| 2026-05-01 12:29 | 27.38982 | 49.66938 | 31888 ft | 400 kts | 302° |
| 2026-05-01 12:29 | 27.44336 | 49.59835 | 31900 ft | 396 kts | 302° |
| 2026-05-01 12:30 | 27.49966 | 49.53019 | 31898 ft | 406 kts | 312° |
| 2026-05-01 12:31 | 27.54420 | 49.49070 | 31909 ft | 407 kts | 313° |
| 2026-05-01 12:31 | 27.58878 | 49.45106 | 31908 ft | 408 kts | 312° |
| 2026-05-01 12:32 | 27.63309 | 49.41134 | 31906 ft | 409 kts | 312° |
| 2026-05-01 12:32 | 27.69984 | 49.35123 | 31904 ft | 410 kts | 312° |
| 2026-05-01 12:33 | 27.74453 | 49.31093 | 31924 ft | 410 kts | 312° |
| 2026-05-01 12:33 | 27.78920 | 49.27060 | 31908 ft | 411 kts | 312° |
| 2026-05-01 12:34 | 27.83362 | 49.23045 | 31684 ft | 413 kts | 312° |
| 2026-05-01 12:34 | 27.85619 | 49.21001 | 31090 ft | 415 kts | 313° |
| 2026-05-01 12:34 | 27.87909 | 49.19000 | 30412 ft | 418 kts | 317° |
| 2026-05-01 12:35 | 27.90392 | 49.17261 | 29674 ft | 417 kts | 321° |
| 2026-05-01 12:35 | 27.92902 | 49.15643 | 28857 ft | 413 kts | 322° |
| 2026-05-01 12:35 | 27.95366 | 49.14081 | 28055 ft | 407 kts | 323° |
| 2026-05-01 12:35 | 27.97833 | 49.12508 | 27271 ft | 409 kts | 323° |
| 2026-05-01 12:36 | 28.00328 | 49.10895 | 26462 ft | 416 kts | 323° |
| 2026-05-01 12:36 | 28.02848 | 49.09253 | 25902 ft | 420 kts | 323° |
| 2026-05-01 12:36 | 28.05387 | 49.07592 | 25273 ft | 418 kts | 323° |
| 2026-05-01 12:36 | 28.07881 | 49.05964 | 24683 ft | 409 kts | 323° |
| 2026-05-01 12:37 | 28.10331 | 49.04362 | 24100 ft | 400 kts | 323° |
| 2026-05-01 12:37 | 28.12711 | 49.02803 | 23525 ft | 391 kts | 323° |
| 2026-05-01 12:37 | 28.15023 | 49.01282 | 22896 ft | 388 kts | 323° |
| 2026-05-01 12:37 | 28.17356 | 48.99745 | 22307 ft | 387 kts | 323° |
| 2026-05-01 12:38 | 28.19686 | 48.98209 | 21733 ft | 386 kts | 323° |
| 2026-05-01 12:38 | 28.22009 | 48.96678 | 21169 ft | 385 kts | 323° |
| 2026-05-01 12:38 | 28.24329 | 48.95150 | 20609 ft | 384 kts | 323° |
| 2026-05-01 12:38 | 28.26636 | 48.93631 | 20055 ft | 383 kts | 323° |
| 2026-05-01 12:39 | 28.28942 | 48.92112 | 19499 ft | 383 kts | 323° |
| 2026-05-01 12:39 | 28.31249 | 48.90584 | 18931 ft | 383 kts | 323° |
| 2026-05-01 12:39 | 28.33518 | 48.89078 | 18354 ft | 380 kts | 323° |
| 2026-05-01 12:39 | 28.35810 | 48.87554 | 17736 ft | 382 kts | 323° |
| 2026-05-01 12:40 | 28.38104 | 48.86027 | 17151 ft | 382 kts | 323° |
| 2026-05-01 12:40 | 28.40398 | 48.84500 | 16576 ft | 382 kts | 323° |
| 2026-05-01 12:40 | 28.42698 | 48.82969 | 16011 ft | 382 kts | 323° |
| 2026-05-01 12:40 | 28.44987 | 48.81446 | 15450 ft | 380 kts | 323° |
| 2026-05-01 12:41 | 28.47228 | 48.79955 | 14894 ft | 372 kts | 323° |
| 2026-05-01 12:41 | 28.49426 | 48.78495 | 14349 ft | 359 kts | 323° |
| 2026-05-01 12:41 | 28.51554 | 48.77077 | 13888 ft | 351 kts | 323° |
| 2026-05-01 12:41 | 28.53639 | 48.75687 | 13345 ft | 342 kts | 323° |
| 2026-05-01 12:42 | 28.55662 | 48.74332 | 12821 ft | 331 kts | 322° |
| 2026-05-01 12:42 | 28.57439 | 48.72816 | 12324 ft | 317 kts | 313° |
| 2026-05-01 12:42 | 28.58919 | 48.71039 | 12081 ft | 302 kts | 304° |
| 2026-05-01 12:42 | 28.60202 | 48.69130 | 11852 ft | 307 kts | 303° |
| 2026-05-01 12:43 | 28.61495 | 48.67159 | 11612 ft | 313 kts | 302° |
| 2026-05-01 12:43 | 28.62803 | 48.65165 | 11374 ft | 311 kts | 303° |
| 2026-05-01 12:43 | 28.64081 | 48.63228 | 11138 ft | 308 kts | 303° |
| 2026-05-01 12:43 | 28.65367 | 48.61283 | 10895 ft | 305 kts | 303° |
| 2026-05-01 12:44 | 28.66642 | 48.59357 | 10655 ft | 301 kts | 303° |
| 2026-05-01 12:44 | 28.67899 | 48.57460 | 10419 ft | 299 kts | 303° |
| 2026-05-01 12:44 | 28.70382 | 48.53712 | 9944 ft | 291 kts | 303° |
| 2026-05-01 12:45 | 28.72722 | 48.50185 | 9417 ft | 270 kts | 303° |
| 2026-05-01 12:45 | 28.73829 | 48.48505 | 9151 ft | 260 kts | 303° |
| 2026-05-01 12:45 | 28.74873 | 48.46863 | 8891 ft | 252 kts | 302° |
| 2026-05-01 12:46 | 28.75882 | 48.45257 | 8633 ft | 246 kts | 302° |
| 2026-05-01 12:46 | 28.76884 | 48.43658 | 8405 ft | 249 kts | 303° |
| 2026-05-01 12:46 | 28.77899 | 48.42039 | 8166 ft | 252 kts | 303° |
| 2026-05-01 12:46 | 28.78910 | 48.40427 | 7933 ft | 254 kts | 303° |
| 2026-05-01 12:47 | 28.79940 | 48.38786 | 7703 ft | 253 kts | 303° |
| 2026-05-01 12:47 | 28.80958 | 48.37166 | 7445 ft | 248 kts | 304° |
| 2026-05-01 12:47 | 28.81964 | 48.35565 | 7205 ft | 247 kts | 304° |
| 2026-05-01 12:47 | 28.82952 | 48.33991 | 6976 ft | 246 kts | 304° |
| 2026-05-01 12:48 | 28.83950 | 48.32401 | 6738 ft | 246 kts | 305° |
| 2026-05-01 12:48 | 28.84947 | 48.30813 | 6502 ft | 245 kts | 305° |
| 2026-05-01 12:48 | 28.85938 | 48.29235 | 6271 ft | 245 kts | 305° |
| 2026-05-01 12:48 | 28.86927 | 48.27657 | 6037 ft | 244 kts | 306° |
| 2026-05-01 12:49 | 28.87920 | 48.26073 | 5781 ft | 244 kts | 306° |
| 2026-05-01 12:49 | 28.88909 | 48.24496 | 5546 ft | 244 kts | 306° |
| 2026-05-01 12:49 | 28.89887 | 48.22936 | 5311 ft | 244 kts | 306° |
| 2026-05-01 12:49 | 28.90875 | 48.21359 | 5075 ft | 244 kts | 306° |
| 2026-05-01 12:50 | 28.91862 | 48.19782 | 4826 ft | 242 kts | 306° |
| 2026-05-01 12:50 | 28.92827 | 48.18241 | 4564 ft | 235 kts | 307° |
| 2026-05-01 12:50 | 28.93766 | 48.16739 | 4307 ft | 228 kts | 307° |
| 2026-05-01 12:50 | 28.94668 | 48.15298 | 4059 ft | 224 kts | 307° |
| 2026-05-01 12:51 | 28.95564 | 48.13867 | 4065 ft | 219 kts | 307° |
| 2026-05-01 12:51 | 28.96454 | 48.12443 | 4058 ft | 223 kts | 307° |
| 2026-05-01 12:51 | 28.98704 | 48.09974 | 4062 ft | 224 kts | 323° |
| 2026-05-01 12:52 | 28.99905 | 48.08926 | 4023 ft | 210 kts | 323° |
| 2026-05-01 12:52 | 29.02127 | 48.06953 | 3551 ft | 191 kts | 323° |
| 2026-05-01 12:52 | 29.03129 | 48.06053 | 3372 ft | 179 kts | 323° |
| 2026-05-01 12:53 | 29.05085 | 48.04291 | 3083 ft | 178 kts | 323° |
| 2026-05-01 12:53 | 29.06047 | 48.03423 | 2892 ft | 175 kts | 324° |
| 2026-05-01 12:53 | 29.07061 | 48.02616 | 2696 ft | 179 kts | 334° |
| 2026-05-01 12:54 | 29.08153 | 48.02019 | 2485 ft | 167 kts | 337° |
| 2026-05-01 12:54 | 29.10179 | 48.00951 | 2048 ft | 165 kts | 338° |
| 2026-05-01 12:54 | 29.11235 | 48.00386 | 1834 ft | 169 kts | 339° |
| 2026-05-01 12:55 | 29.13264 | 47.99300 | 1429 ft | 153 kts | 337° |
| 2026-05-01 12:55 | 29.14228 | 47.98786 | 1222 ft | 152 kts | 339° |
| 2026-05-01 12:55 | 29.15187 | 47.98275 | 1033 ft | 151 kts | 338° |
| 2026-05-01 12:56 | 29.16135 | 47.97768 | 829 ft | 149 kts | 338° |
| 2026-05-01 12:56 | 29.17066 | 47.97264 | 640 ft | 147 kts | 337° |
| 2026-05-01 12:56 | 29.17987 | 47.96773 | 461 ft | 144 kts | 338° |
| 2026-05-01 12:56 | 29.18896 | 47.96285 | 267 ft | 145 kts | 337° |
| 2026-05-01 12:57 | 29.19785 | 47.95809 | 196 ft | 131 kts | 337° |
| 2026-05-01 12:57 | 29.21002 | 47.95165 | 181 ft | 54 kts | 335° |
| 2026-05-01 12:57 | 29.21225 | 47.95078 | 181 ft | 26 kts | 346° |
| 2026-05-01 12:58 | 29.21403 | 47.95062 | 195 ft | 19 kts | 5° |
| 2026-05-01 12:58 | 29.21568 | 47.95069 | 184 ft | 20 kts | 358° |
| 2026-05-01 12:58 | 29.21681 | 47.95047 | 183 ft | 17 kts | 342° |
| 2026-05-01 12:59 | 29.21884 | 47.94944 | 176 ft | 16 kts | 348° |
| 2026-05-01 12:59 | 29.21974 | 47.95034 | 165 ft | 20 kts | 65° |
| 2026-05-01 12:59 | 29.22088 | 47.95311 | 160 ft | 19 kts | 63° |
| 2026-05-01 13:00 | 29.22193 | 47.95571 | 159 ft | 17 kts | 65° |
| 2026-05-01 13:00 | 29.22242 | 47.95694 | 159 ft | 17 kts | 65° |
| 2026-05-01 13:01 | 29.22347 | 47.95953 | 159 ft | 20 kts | 65° |
| 2026-05-01 13:01 | 29.22409 | 47.96100 | 159 ft | 21 kts | 64° |
| 2026-05-01 13:01 | 29.22540 | 47.96423 | 160 ft | 23 kts | 65° |
| 2026-05-01 13:02 | 29.22608 | 47.96586 | 164 ft | 21 kts | 61° |
| 2026-05-01 13:07 | 29.23873 | 47.97286 | 166 ft | 1 kts | 241° |
| 2026-05-01 13:07 | 29.23870 | 47.97278 | 166 ft | 0 kts | 245° |